sensor_id;sensor_type;location;lat;lon;timestamp;temperature;humidity
64501;DHT22;50874;24.150;-110.320;2023-04-25T00:01:35;31.60;48.50
64501;DHT22;50874;24.150;-110.320;2023-04-25T00:04:03;31.70;48.40
64501;DHT22;50874;24.150;-110.320;2023-04-25T00:06:32;31.70;49.90
64501;DHT22;50874;24.150;-110.320;2023-04-25T00:09:03;31.60;49.20
64501;DHT22;50874;24.150;-110.320;2023-04-25T00:11:29;31.50;48.00
64501;DHT22;50874;24.150;-110.320;2023-04-25T00:13:57;31.20;49.80
64501;DHT22;50874;24.150;-110.320;2023-04-25T00:16:23;31.10;51.10
64501;DHT22;50874;24.150;-110.320;2023-04-25T00:18:50;31.10;51.50
64501;DHT22;50874;24.150;-110.320;2023-04-25T00:21:20;31.00;50.20
64501;DHT22;50874;24.150;-110.320;2023-04-25T00:23:46;30.90;50.80
64501;DHT22;50874;24.150;-110.320;2023-04-25T00:26:13;31.10;52.30
64501;DHT22;50874;24.150;-110.320;2023-04-25T00:28:40;30.80;51.00
64501;DHT22;50874;24.150;-110.320;2023-04-25T00:31:07;30.80;52.40
64501;DHT22;50874;24.150;-110.320;2023-04-25T00:33:33;30.80;51.50
64501;DHT22;50874;24.150;-110.320;2023-04-25T00:36:00;30.70;53.00
64501;DHT22;50874;24.150;-110.320;2023-04-25T00:38:27;30.40;53.10
64501;DHT22;50874;24.150;-110.320;2023-04-25T00:40:53;30.30;53.00
64501;DHT22;50874;24.150;-110.320;2023-04-25T00:43:21;30.20;53.00
64501;DHT22;50874;24.150;-110.320;2023-04-25T00:45:48;30.10;50.80
64501;DHT22;50874;24.150;-110.320;2023-04-25T00:48:17;30.10;52.20
64501;DHT22;50874;24.150;-110.320;2023-04-25T00:50:52;30.10;51.80
64501;DHT22;50874;24.150;-110.320;2023-04-25T00:53:23;30.10;49.60
64501;DHT22;50874;24.150;-110.320;2023-04-25T00:55:50;29.80;52.00
64501;DHT22;50874;24.150;-110.320;2023-04-25T00:58:18;29.70;52.80
64501;DHT22;50874;24.150;-110.320;2023-04-25T01:00:49;29.80;53.50
64501;DHT22;50874;24.150;-110.320;2023-04-25T01:03:18;29.70;54.40
64501;DHT22;50874;24.150;-110.320;2023-04-25T01:05:48;29.30;52.90
64501;DHT22;50874;24.150;-110.320;2023-04-25T01:08:14;29.20;55.80
64501;DHT22;50874;24.150;-110.320;2023-04-25T01:10:41;29.20;56.40
64501;DHT22;50874;24.150;-110.320;2023-04-25T01:13:08;29.10;58.10
64501;DHT22;50874;24.150;-110.320;2023-04-25T01:15:34;28.90;58.70
64501;DHT22;50874;24.150;-110.320;2023-04-25T01:18:02;28.70;60.40
64501;DHT22;50874;24.150;-110.320;2023-04-25T01:20:29;28.60;60.20
64501;DHT22;50874;24.150;-110.320;2023-04-25T01:22:57;28.40;60.80
64501;DHT22;50874;24.150;-110.320;2023-04-25T01:25:25;28.10;63.10
64501;DHT22;50874;24.150;-110.320;2023-04-25T01:27:52;28.00;64.90
64501;DHT22;50874;24.150;-110.320;2023-04-25T01:30:18;27.70;66.30
64501;DHT22;50874;24.150;-110.320;2023-04-25T01:32:45;27.50;68.00
64501;DHT22;50874;24.150;-110.320;2023-04-25T01:35:14;27.00;68.40
64501;DHT22;50874;24.150;-110.320;2023-04-25T01:37:41;26.90;69.00
64501;DHT22;50874;24.150;-110.320;2023-04-25T01:40:09;26.70;70.80
64501;DHT22;50874;24.150;-110.320;2023-04-25T01:42:38;26.40;70.90
64501;DHT22;50874;24.150;-110.320;2023-04-25T01:45:05;26.40;72.00
64501;DHT22;50874;24.150;-110.320;2023-04-25T01:47:32;26.40;73.00
64501;DHT22;50874;24.150;-110.320;2023-04-25T01:50:02;26.10;74.10
64501;DHT22;50874;24.150;-110.320;2023-04-25T01:52:28;26.00;74.20
64501;DHT22;50874;24.150;-110.320;2023-04-25T01:54:57;25.90;75.10
64501;DHT22;50874;24.150;-110.320;2023-04-25T01:57:23;25.60;77.60
64501;DHT22;50874;24.150;-110.320;2023-04-25T01:59:50;25.60;79.60
64501;DHT22;50874;24.150;-110.320;2023-04-25T02:02:17;25.50;79.70
64501;DHT22;50874;24.150;-110.320;2023-04-25T02:04:43;25.40;81.30
64501;DHT22;50874;24.150;-110.320;2023-04-25T02:07:09;25.20;82.50
64501;DHT22;50874;24.150;-110.320;2023-04-25T02:09:36;25.10;83.60
64501;DHT22;50874;24.150;-110.320;2023-04-25T02:12:03;25.00;84.50
64501;DHT22;50874;24.150;-110.320;2023-04-25T02:14:30;24.90;85.90
64501;DHT22;50874;24.150;-110.320;2023-04-25T02:16:56;24.60;87.80
64501;DHT22;50874;24.150;-110.320;2023-04-25T02:19:23;24.40;90.30
64501;DHT22;50874;24.150;-110.320;2023-04-25T02:21:49;24.30;91.90
64501;DHT22;50874;24.150;-110.320;2023-04-25T02:24:15;24.20;92.90
64501;DHT22;50874;24.150;-110.320;2023-04-25T02:26:42;24.00;94.10
64501;DHT22;50874;24.150;-110.320;2023-04-25T02:29:09;24.00;94.60
64501;DHT22;50874;24.150;-110.320;2023-04-25T02:31:36;24.00;95.50
64501;DHT22;50874;24.150;-110.320;2023-04-25T02:34:03;23.80;96.90
64501;DHT22;50874;24.150;-110.320;2023-04-25T02:36:30;23.80;97.60
64501;DHT22;50874;24.150;-110.320;2023-04-25T02:39:00;23.80;98.10
64501;DHT22;50874;24.150;-110.320;2023-04-25T02:41:27;23.80;98.50
64501;DHT22;50874;24.150;-110.320;2023-04-25T02:43:54;23.70;99.20
64501;DHT22;50874;24.150;-110.320;2023-04-25T02:46:20;23.50;99.90
64501;DHT22;50874;24.150;-110.320;2023-04-25T02:48:47;23.30;99.90
64501;DHT22;50874;24.150;-110.320;2023-04-25T02:51:13;23.10;99.90
64501;DHT22;50874;24.150;-110.320;2023-04-25T02:53:42;23.00;99.90
64501;DHT22;50874;24.150;-110.320;2023-04-25T02:56:08;22.90;99.90
64501;DHT22;50874;24.150;-110.320;2023-04-25T02:58:35;22.70;99.90
64501;DHT22;50874;24.150;-110.320;2023-04-25T03:01:02;22.60;99.90
64501;DHT22;50874;24.150;-110.320;2023-04-25T03:03:28;22.50;99.90
64501;DHT22;50874;24.150;-110.320;2023-04-25T03:05:54;22.50;99.90
64501;DHT22;50874;24.150;-110.320;2023-04-25T03:08:21;22.30;99.90
64501;DHT22;50874;24.150;-110.320;2023-04-25T03:10:48;22.30;99.90
64501;DHT22;50874;24.150;-110.320;2023-04-25T03:13:17;22.20;99.90
64501;DHT22;50874;24.150;-110.320;2023-04-25T03:15:43;22.10;99.90
64501;DHT22;50874;24.150;-110.320;2023-04-25T03:18:10;21.90;99.90
64501;DHT22;50874;24.150;-110.320;2023-04-25T03:20:36;21.80;99.90
64501;DHT22;50874;24.150;-110.320;2023-04-25T03:23:05;21.70;99.90
64501;DHT22;50874;24.150;-110.320;2023-04-25T03:25:31;21.60;99.90
64501;DHT22;50874;24.150;-110.320;2023-04-25T03:27:58;21.60;99.90
64501;DHT22;50874;24.150;-110.320;2023-04-25T03:30:24;21.60;99.90
64501;DHT22;50874;24.150;-110.320;2023-04-25T03:32:51;21.50;99.90
64501;DHT22;50874;24.150;-110.320;2023-04-25T03:35:17;21.60;99.90
64501;DHT22;50874;24.150;-110.320;2023-04-25T03:37:44;21.50;99.90
64501;DHT22;50874;24.150;-110.320;2023-04-25T03:40:11;21.40;99.90
64501;DHT22;50874;24.150;-110.320;2023-04-25T03:42:38;21.30;99.90
64501;DHT22;50874;24.150;-110.320;2023-04-25T03:45:05;21.20;99.90
64501;DHT22;50874;24.150;-110.320;2023-04-25T03:47:31;21.10;99.90
64501;DHT22;50874;24.150;-110.320;2023-04-25T03:49:58;21.00;99.90
64501;DHT22;50874;24.150;-110.320;2023-04-25T03:52:26;20.90;99.90
64501;DHT22;50874;24.150;-110.320;2023-04-25T03:54:52;20.80;99.90
64501;DHT22;50874;24.150;-110.320;2023-04-25T03:57:19;20.80;99.90
64501;DHT22;50874;24.150;-110.320;2023-04-25T03:59:45;20.70;99.90
64501;DHT22;50874;24.150;-110.320;2023-04-25T04:02:12;20.70;99.90
64501;DHT22;50874;24.150;-110.320;2023-04-25T04:04:38;20.50;99.90
64501;DHT22;50874;24.150;-110.320;2023-04-25T04:07:05;20.40;99.90
64501;DHT22;50874;24.150;-110.320;2023-04-25T04:09:31;20.30;99.90
64501;DHT22;50874;24.150;-110.320;2023-04-25T04:11:57;20.20;99.90
64501;DHT22;50874;24.150;-110.320;2023-04-25T04:14:24;20.20;99.90
64501;DHT22;50874;24.150;-110.320;2023-04-25T04:16:51;20.10;99.90
64501;DHT22;50874;24.150;-110.320;2023-04-25T04:19:18;20.20;99.90
64501;DHT22;50874;24.150;-110.320;2023-04-25T04:21:44;20.20;99.90
64501;DHT22;50874;24.150;-110.320;2023-04-25T04:24:11;20.10;99.90
64501;DHT22;50874;24.150;-110.320;2023-04-25T04:26:37;20.10;99.90
64501;DHT22;50874;24.150;-110.320;2023-04-25T04:29:04;20.10;99.90
64501;DHT22;50874;24.150;-110.320;2023-04-25T04:31:31;20.10;99.90
64501;DHT22;50874;24.150;-110.320;2023-04-25T04:33:58;20.00;99.90
64501;DHT22;50874;24.150;-110.320;2023-04-25T04:36:24;19.90;99.90
64501;DHT22;50874;24.150;-110.320;2023-04-25T04:38:52;20.00;99.90
64501;DHT22;50874;24.150;-110.320;2023-04-25T04:41:18;19.90;99.90
64501;DHT22;50874;24.150;-110.320;2023-04-25T04:43:45;19.80;99.90
64501;DHT22;50874;24.150;-110.320;2023-04-25T04:46:11;19.80;99.90
64501;DHT22;50874;24.150;-110.320;2023-04-25T04:48:38;19.80;99.90
64501;DHT22;50874;24.150;-110.320;2023-04-25T04:51:06;19.70;99.90
64501;DHT22;50874;24.150;-110.320;2023-04-25T04:53:32;19.60;99.90
64501;DHT22;50874;24.150;-110.320;2023-04-25T04:55:59;19.60;99.90
64501;DHT22;50874;24.150;-110.320;2023-04-25T04:58:26;19.60;99.90
64501;DHT22;50874;24.150;-110.320;2023-04-25T05:00:55;19.60;99.90
64501;DHT22;50874;24.150;-110.320;2023-04-25T05:03:21;19.60;99.90
64501;DHT22;50874;24.150;-110.320;2023-04-25T05:05:48;19.60;99.90
64501;DHT22;50874;24.150;-110.320;2023-04-25T05:08:14;19.50;99.90
64501;DHT22;50874;24.150;-110.320;2023-04-25T05:10:41;19.50;99.90
64501;DHT22;50874;24.150;-110.320;2023-04-25T05:13:07;19.30;99.90
64501;DHT22;50874;24.150;-110.320;2023-04-25T05:15:34;19.30;99.90
64501;DHT22;50874;24.150;-110.320;2023-04-25T05:18:00;19.20;99.90
64501;DHT22;50874;24.150;-110.320;2023-04-25T05:20:27;19.20;99.90
64501;DHT22;50874;24.150;-110.320;2023-04-25T05:22:53;19.10;99.90
64501;DHT22;50874;24.150;-110.320;2023-04-25T05:25:20;19.20;99.90
64501;DHT22;50874;24.150;-110.320;2023-04-25T05:27:46;19.10;99.90
64501;DHT22;50874;24.150;-110.320;2023-04-25T05:30:13;19.10;99.90
64501;DHT22;50874;24.150;-110.320;2023-04-25T05:32:39;19.00;99.90
64501;DHT22;50874;24.150;-110.320;2023-04-25T05:35:06;19.10;99.90
64501;DHT22;50874;24.150;-110.320;2023-04-25T05:37:33;19.00;99.90
64501;DHT22;50874;24.150;-110.320;2023-04-25T05:39:59;19.00;99.90
64501;DHT22;50874;24.150;-110.320;2023-04-25T05:42:26;19.00;99.90
64501;DHT22;50874;24.150;-110.320;2023-04-25T05:44:52;19.00;99.90
64501;DHT22;50874;24.150;-110.320;2023-04-25T05:47:18;19.00;99.90
64501;DHT22;50874;24.150;-110.320;2023-04-25T05:49:45;19.00;99.90
64501;DHT22;50874;24.150;-110.320;2023-04-25T05:52:11;19.00;99.90
64501;DHT22;50874;24.150;-110.320;2023-04-25T05:54:38;18.90;99.90
64501;DHT22;50874;24.150;-110.320;2023-04-25T05:57:04;18.90;99.90
64501;DHT22;50874;24.150;-110.320;2023-04-25T05:59:31;18.90;99.90
64501;DHT22;50874;24.150;-110.320;2023-04-25T06:01:57;18.90;99.90
64501;DHT22;50874;24.150;-110.320;2023-04-25T06:04:24;18.80;99.90
64501;DHT22;50874;24.150;-110.320;2023-04-25T06:06:51;18.80;99.90
64501;DHT22;50874;24.150;-110.320;2023-04-25T06:09:17;18.70;99.90
64501;DHT22;50874;24.150;-110.320;2023-04-25T06:11:44;18.70;99.90
64501;DHT22;50874;24.150;-110.320;2023-04-25T06:14:10;18.60;99.90
64501;DHT22;50874;24.150;-110.320;2023-04-25T06:16:37;18.60;99.90
64501;DHT22;50874;24.150;-110.320;2023-04-25T06:19:03;18.60;99.90
64501;DHT22;50874;24.150;-110.320;2023-04-25T06:21:30;18.60;99.90
64501;DHT22;50874;24.150;-110.320;2023-04-25T06:23:57;18.50;99.90
64501;DHT22;50874;24.150;-110.320;2023-04-25T06:26:23;18.50;99.90
64501;DHT22;50874;24.150;-110.320;2023-04-25T06:28:50;18.40;99.90
64501;DHT22;50874;24.150;-110.320;2023-04-25T06:31:16;18.50;99.90
64501;DHT22;50874;24.150;-110.320;2023-04-25T06:33:43;18.40;99.90
64501;DHT22;50874;24.150;-110.320;2023-04-25T06:36:09;18.40;99.90
64501;DHT22;50874;24.150;-110.320;2023-04-25T06:38:36;18.30;99.90
64501;DHT22;50874;24.150;-110.320;2023-04-25T06:41:02;18.30;99.90
64501;DHT22;50874;24.150;-110.320;2023-04-25T06:43:29;18.30;99.90
64501;DHT22;50874;24.150;-110.320;2023-04-25T06:45:59;18.20;99.90
64501;DHT22;50874;24.150;-110.320;2023-04-25T06:48:27;18.30;99.90
64501;DHT22;50874;24.150;-110.320;2023-04-25T06:50:54;18.20;99.90
64501;DHT22;50874;24.150;-110.320;2023-04-25T06:53:20;18.10;99.90
64501;DHT22;50874;24.150;-110.320;2023-04-25T06:55:47;18.20;99.90
64501;DHT22;50874;24.150;-110.320;2023-04-25T06:58:13;18.20;99.90
64501;DHT22;50874;24.150;-110.320;2023-04-25T07:00:40;18.10;99.90
64501;DHT22;50874;24.150;-110.320;2023-04-25T07:03:06;18.10;99.90
64501;DHT22;50874;24.150;-110.320;2023-04-25T07:05:33;18.10;99.90
64501;DHT22;50874;24.150;-110.320;2023-04-25T07:07:59;18.10;99.90
64501;DHT22;50874;24.150;-110.320;2023-04-25T07:10:26;18.00;99.90
64501;DHT22;50874;24.150;-110.320;2023-04-25T07:12:52;18.00;99.90
64501;DHT22;50874;24.150;-110.320;2023-04-25T07:15:19;17.90;99.90
64501;DHT22;50874;24.150;-110.320;2023-04-25T07:17:45;18.00;99.90
64501;DHT22;50874;24.150;-110.320;2023-04-25T07:20:12;17.90;99.90
64501;DHT22;50874;24.150;-110.320;2023-04-25T07:22:38;17.90;99.90
64501;DHT22;50874;24.150;-110.320;2023-04-25T07:25:05;17.90;99.90
64501;DHT22;50874;24.150;-110.320;2023-04-25T07:27:32;17.90;99.90
64501;DHT22;50874;24.150;-110.320;2023-04-25T07:29:58;17.80;99.90
64501;DHT22;50874;24.150;-110.320;2023-04-25T07:32:26;17.80;99.90
64501;DHT22;50874;24.150;-110.320;2023-04-25T07:34:52;17.80;99.90
64501;DHT22;50874;24.150;-110.320;2023-04-25T07:37:19;17.70;99.90
64501;DHT22;50874;24.150;-110.320;2023-04-25T08:40:55;17.00;99.90
64501;DHT22;50874;24.150;-110.320;2023-04-25T10:30:09;16.20;99.90
64501;DHT22;50874;24.150;-110.320;2023-04-25T11:27:33;15.90;99.90
64501;DHT22;50874;24.150;-110.320;2023-04-25T11:30:11;15.90;99.90
64501;DHT22;50874;24.150;-110.320;2023-04-25T11:32:40;15.80;99.90
64501;DHT22;50874;24.150;-110.320;2023-04-25T11:35:07;15.80;99.90
64501;DHT22;50874;24.150;-110.320;2023-04-25T11:37:34;15.70;99.90
64501;DHT22;50874;24.150;-110.320;2023-04-25T11:40:01;15.70;99.90
64501;DHT22;50874;24.150;-110.320;2023-04-25T11:42:28;15.70;99.90
64501;DHT22;50874;24.150;-110.320;2023-04-25T11:44:54;15.70;99.90
64501;DHT22;50874;24.150;-110.320;2023-04-25T11:47:29;15.60;99.90
64501;DHT22;50874;24.150;-110.320;2023-04-25T11:49:55;15.60;99.90
64501;DHT22;50874;24.150;-110.320;2023-04-25T11:52:23;15.50;99.90
64501;DHT22;50874;24.150;-110.320;2023-04-25T11:54:50;15.50;99.90
64501;DHT22;50874;24.150;-110.320;2023-04-25T11:57:19;15.40;99.90
64501;DHT22;50874;24.150;-110.320;2023-04-25T11:59:46;15.40;99.90
64501;DHT22;50874;24.150;-110.320;2023-04-25T12:02:24;15.40;99.90
64501;DHT22;50874;24.150;-110.320;2023-04-25T12:04:51;15.50;99.90
64501;DHT22;50874;24.150;-110.320;2023-04-25T12:07:18;15.40;99.90
64501;DHT22;50874;24.150;-110.320;2023-04-25T12:09:52;15.40;99.90
64501;DHT22;50874;24.150;-110.320;2023-04-25T12:12:19;15.40;99.90
64501;DHT22;50874;24.150;-110.320;2023-04-25T12:14:47;15.40;99.90
64501;DHT22;50874;24.150;-110.320;2023-04-25T12:17:17;15.40;99.90
64501;DHT22;50874;24.150;-110.320;2023-04-25T12:19:43;15.40;99.90
64501;DHT22;50874;24.150;-110.320;2023-04-25T12:22:23;15.40;99.90
64501;DHT22;50874;24.150;-110.320;2023-04-25T12:24:50;15.40;99.90
64501;DHT22;50874;24.150;-110.320;2023-04-25T12:27:19;15.40;99.90
64501;DHT22;50874;24.150;-110.320;2023-04-25T12:29:53;15.30;99.90
64501;DHT22;50874;24.150;-110.320;2023-04-25T12:32:20;15.30;99.90
64501;DHT22;50874;24.150;-110.320;2023-04-25T12:34:46;15.30;99.90
64501;DHT22;50874;24.150;-110.320;2023-04-25T12:37:13;15.30;99.90
64501;DHT22;50874;24.150;-110.320;2023-04-25T12:39:40;15.30;99.90
64501;DHT22;50874;24.150;-110.320;2023-04-25T12:42:07;15.30;99.90
64501;DHT22;50874;24.150;-110.320;2023-04-25T12:44:34;15.40;99.90
64501;DHT22;50874;24.150;-110.320;2023-04-25T12:47:00;15.40;99.90
64501;DHT22;50874;24.150;-110.320;2023-04-25T12:49:28;15.40;99.90
64501;DHT22;50874;24.150;-110.320;2023-04-25T12:51:55;15.40;99.90
64501;DHT22;50874;24.150;-110.320;2023-04-25T12:54:22;15.30;99.90
64501;DHT22;50874;24.150;-110.320;2023-04-25T12:56:48;15.30;99.90
64501;DHT22;50874;24.150;-110.320;2023-04-25T12:59:16;15.30;99.90
64501;DHT22;50874;24.150;-110.320;2023-04-25T13:01:42;15.30;99.90
64501;DHT22;50874;24.150;-110.320;2023-04-25T13:04:10;15.40;99.90
64501;DHT22;50874;24.150;-110.320;2023-04-25T13:06:36;15.40;99.90
64501;DHT22;50874;24.150;-110.320;2023-04-25T13:09:03;15.40;99.90
64501;DHT22;50874;24.150;-110.320;2023-04-25T13:11:30;15.40;99.90
64501;DHT22;50874;24.150;-110.320;2023-04-25T13:13:57;15.50;99.90
64501;DHT22;50874;24.150;-110.320;2023-04-25T13:16:23;15.50;99.90
64501;DHT22;50874;24.150;-110.320;2023-04-25T13:18:50;15.60;99.90
64501;DHT22;50874;24.150;-110.320;2023-04-25T13:21:16;15.70;99.90
64501;DHT22;50874;24.150;-110.320;2023-04-25T13:23:42;15.80;99.90
64501;DHT22;50874;24.150;-110.320;2023-04-25T13:26:10;15.80;99.90
64501;DHT22;50874;24.150;-110.320;2023-04-25T13:28:36;16.00;99.90
64501;DHT22;50874;24.150;-110.320;2023-04-25T13:31:03;16.10;99.90
64501;DHT22;50874;24.150;-110.320;2023-04-25T13:33:29;16.30;99.90
64501;DHT22;50874;24.150;-110.320;2023-04-25T13:35:56;16.50;99.90
64501;DHT22;50874;24.150;-110.320;2023-04-25T13:38:25;16.90;99.90
64501;DHT22;50874;24.150;-110.320;2023-04-25T13:40:52;17.40;99.90
64501;DHT22;50874;24.150;-110.320;2023-04-25T13:43:22;17.70;99.90
64501;DHT22;50874;24.150;-110.320;2023-04-25T13:45:49;17.90;99.90
64501;DHT22;50874;24.150;-110.320;2023-04-25T13:48:17;18.20;99.90
64501;DHT22;50874;24.150;-110.320;2023-04-25T13:50:44;18.30;99.90
64501;DHT22;50874;24.150;-110.320;2023-04-25T13:53:11;18.30;99.90
64501;DHT22;50874;24.150;-110.320;2023-04-25T13:55:37;18.20;99.90
64501;DHT22;50874;24.150;-110.320;2023-04-25T13:58:04;18.10;99.90
64501;DHT22;50874;24.150;-110.320;2023-04-25T14:00:35;18.50;99.90
64501;DHT22;50874;24.150;-110.320;2023-04-25T15:58:54;25.70;99.90
64501;DHT22;50874;24.150;-110.320;2023-04-25T16:57:42;30.20;99.90
64501;DHT22;50874;24.150;-110.320;2023-04-25T17:00:09;30.30;98.60
64501;DHT22;50874;24.150;-110.320;2023-04-25T17:02:37;30.70;98.20
64501;DHT22;50874;24.150;-110.320;2023-04-25T17:05:04;30.40;97.50
64501;DHT22;50874;24.150;-110.320;2023-04-25T17:07:31;30.80;97.40
64501;DHT22;50874;24.150;-110.320;2023-04-25T17:09:59;30.60;96.70
64501;DHT22;50874;24.150;-110.320;2023-04-25T17:12:26;30.90;96.40
64501;DHT22;50874;24.150;-110.320;2023-04-25T17:14:53;30.60;95.90
64501;DHT22;50874;24.150;-110.320;2023-04-25T17:17:19;30.70;95.20
64501;DHT22;50874;24.150;-110.320;2023-04-25T17:19:46;30.50;95.90
64501;DHT22;50874;24.150;-110.320;2023-04-25T17:22:13;31.00;94.90
64501;DHT22;50874;24.150;-110.320;2023-04-25T17:24:39;31.10;95.40
64501;DHT22;50874;24.150;-110.320;2023-04-25T17:27:06;31.60;94.20
64501;DHT22;50874;24.150;-110.320;2023-04-25T17:29:33;31.50;93.80
64501;DHT22;50874;24.150;-110.320;2023-04-25T17:32:00;31.70;93.00
64501;DHT22;50874;24.150;-110.320;2023-04-25T17:34:26;31.30;93.10
64501;DHT22;50874;24.150;-110.320;2023-04-25T17:36:53;31.20;93.00
64501;DHT22;50874;24.150;-110.320;2023-04-25T17:39:20;31.10;93.10
64501;DHT22;50874;24.150;-110.320;2023-04-25T17:41:47;31.20;93.10
64501;DHT22;50874;24.150;-110.320;2023-04-25T17:44:13;32.20;92.90
64501;DHT22;50874;24.150;-110.320;2023-04-25T17:46:40;31.90;92.30
64501;DHT22;50874;24.150;-110.320;2023-04-25T17:49:06;32.30;92.40
64501;DHT22;50874;24.150;-110.320;2023-04-25T17:51:33;32.70;93.00
64501;DHT22;50874;24.150;-110.320;2023-04-25T17:54:03;33.40;91.90
64501;DHT22;50874;24.150;-110.320;2023-04-25T17:56:30;33.20;91.70
64501;DHT22;50874;24.150;-110.320;2023-04-25T17:58:56;33.40;90.90
64501;DHT22;50874;24.150;-110.320;2023-04-25T18:01:24;33.20;90.80
64501;DHT22;50874;24.150;-110.320;2023-04-25T18:03:50;32.70;88.40
64501;DHT22;50874;24.150;-110.320;2023-04-25T18:06:17;33.10;89.20
64501;DHT22;50874;24.150;-110.320;2023-04-25T18:08:44;33.20;90.10
64501;DHT22;50874;24.150;-110.320;2023-04-25T18:11:11;33.50;87.70
64501;DHT22;50874;24.150;-110.320;2023-04-25T18:13:38;33.70;86.90
64501;DHT22;50874;24.150;-110.320;2023-04-25T18:16:06;34.10;85.90
64501;DHT22;50874;24.150;-110.320;2023-04-25T18:18:32;34.40;84.70
64501;DHT22;50874;24.150;-110.320;2023-04-25T18:21:00;34.40;83.80
64501;DHT22;50874;24.150;-110.320;2023-04-25T18:23:30;34.70;82.70
64501;DHT22;50874;24.150;-110.320;2023-04-25T18:26:02;34.40;81.50
64501;DHT22;50874;24.150;-110.320;2023-04-25T18:28:29;34.20;78.80
64501;DHT22;50874;24.150;-110.320;2023-04-25T18:30:55;34.90;81.10
64501;DHT22;50874;24.150;-110.320;2023-04-25T18:33:22;34.90;82.90
64501;DHT22;50874;24.150;-110.320;2023-04-25T18:35:49;35.40;82.40
64501;DHT22;50874;24.150;-110.320;2023-04-25T18:38:15;35.10;81.80
64501;DHT22;50874;24.150;-110.320;2023-04-25T18:40:42;34.60;82.00
64501;DHT22;50874;24.150;-110.320;2023-04-25T18:43:08;34.90;81.70
64501;DHT22;50874;24.150;-110.320;2023-04-25T18:45:35;34.90;82.10
64501;DHT22;50874;24.150;-110.320;2023-04-25T18:48:01;34.80;81.60
64501;DHT22;50874;24.150;-110.320;2023-04-25T18:50:28;34.70;82.00
64501;DHT22;50874;24.150;-110.320;2023-04-25T18:52:57;35.20;81.40
64501;DHT22;50874;24.150;-110.320;2023-04-25T18:55:23;35.60;80.60
64501;DHT22;50874;24.150;-110.320;2023-04-25T18:57:50;35.70;81.80
64501;DHT22;50874;24.150;-110.320;2023-04-25T19:00:17;34.80;85.10
